sensor_id;sensor_type;location;lat;lon;timestamp;P1;durP1;ratioP1;P2;durP2;ratioP2
55672;SDS011;41554;45.366;20.400;2023-05-16T00:00:17;17.00;;;12.40;;
55672;SDS011;41554;45.366;20.400;2023-05-16T00:02:44;17.55;;;9.98;;
55672;SDS011;41554;45.366;20.400;2023-05-16T00:05:10;19.33;;;11.65;;
55672;SDS011;41554;45.366;20.400;2023-05-16T00:07:40;20.98;;;12.38;;
55672;SDS011;41554;45.366;20.400;2023-05-16T00:10:07;17.90;;;10.90;;
55672;SDS011;41554;45.366;20.400;2023-05-16T00:12:33;11.88;;;10.68;;
55672;SDS011;41554;45.366;20.400;2023-05-16T00:15:01;19.92;;;12.90;;
55672;SDS011;41554;45.366;20.400;2023-05-16T00:17:27;19.98;;;13.05;;
55672;SDS011;41554;45.366;20.400;2023-05-16T00:19:53;12.43;;;9.60;;
55672;SDS011;41554;45.366;20.400;2023-05-16T00:22:22;15.73;;;12.93;;
55672;SDS011;41554;45.366;20.400;2023-05-16T00:24:48;25.75;;;10.68;;
55672;SDS011;41554;45.366;20.400;2023-05-16T00:27:15;21.20;;;11.57;;
55672;SDS011;41554;45.366;20.400;2023-05-16T00:29:41;15.45;;;10.18;;
55672;SDS011;41554;45.366;20.400;2023-05-16T00:32:07;21.83;;;11.65;;
55672;SDS011;41554;45.366;20.400;2023-05-16T00:34:34;12.52;;;9.32;;
55672;SDS011;41554;45.366;20.400;2023-05-16T00:37:00;17.17;;;10.40;;
55672;SDS011;41554;45.366;20.400;2023-05-16T00:39:26;22.67;;;12.02;;
55672;SDS011;41554;45.366;20.400;2023-05-16T00:41:52;20.08;;;11.20;;
55672;SDS011;41554;45.366;20.400;2023-05-16T00:44:18;12.77;;;10.25;;
55672;SDS011;41554;45.366;20.400;2023-05-16T00:46:45;19.52;;;10.77;;
55672;SDS011;41554;45.366;20.400;2023-05-16T00:49:11;20.58;;;8.75;;
55672;SDS011;41554;45.366;20.400;2023-05-16T00:51:37;20.40;;;11.05;;
55672;SDS011;41554;45.366;20.400;2023-05-16T00:54:04;17.92;;;10.65;;
55672;SDS011;41554;45.366;20.400;2023-05-16T00:56:30;18.58;;;10.25;;
55672;SDS011;41554;45.366;20.400;2023-05-16T00:58:56;12.45;;;9.38;;
55672;SDS011;41554;45.366;20.400;2023-05-16T01:01:24;27.40;;;13.50;;
55672;SDS011;41554;45.366;20.400;2023-05-16T01:03:51;15.27;;;11.30;;
55672;SDS011;41554;45.366;20.400;2023-05-16T01:06:17;16.90;;;11.18;;
55672;SDS011;41554;45.366;20.400;2023-05-16T01:08:44;14.02;;;12.32;;
55672;SDS011;41554;45.366;20.400;2023-05-16T01:13:59;15.45;;;10.93;;
55672;SDS011;41554;45.366;20.400;2023-05-16T01:19:29;12.57;;;9.65;;
55672;SDS011;41554;45.366;20.400;2023-05-16T01:27:13;15.23;;;10.95;;
55672;SDS011;41554;45.366;20.400;2023-05-16T01:29:39;16.63;;;11.02;;
55672;SDS011;41554;45.366;20.400;2023-05-16T01:32:05;13.27;;;9.13;;
55672;SDS011;41554;45.366;20.400;2023-05-16T01:34:31;17.33;;;8.68;;
55672;SDS011;41554;45.366;20.400;2023-05-16T01:36:59;12.73;;;9.73;;
55672;SDS011;41554;45.366;20.400;2023-05-16T01:39:40;14.68;;;8.95;;
55672;SDS011;41554;45.366;20.400;2023-05-16T01:42:08;25.17;;;10.15;;
55672;SDS011;41554;45.366;20.400;2023-05-16T01:47:07;11.00;;;7.95;;
55672;SDS011;41554;45.366;20.400;2023-05-16T01:49:35;11.98;;;8.90;;
55672;SDS011;41554;45.366;20.400;2023-05-16T01:52:06;10.75;;;7.88;;
55672;SDS011;41554;45.366;20.400;2023-05-16T01:54:33;14.40;;;9.93;;
55672;SDS011;41554;45.366;20.400;2023-05-16T01:57:02;23.88;;;9.15;;
55672;SDS011;41554;45.366;20.400;2023-05-16T01:59:29;24.25;;;9.00;;
55672;SDS011;41554;45.366;20.400;2023-05-16T02:01:56;15.50;;;9.95;;
55672;SDS011;41554;45.366;20.400;2023-05-16T02:04:22;11.95;;;8.20;;
55672;SDS011;41554;45.366;20.400;2023-05-16T02:06:48;9.57;;;7.95;;
55672;SDS011;41554;45.366;20.400;2023-05-16T02:09:14;21.17;;;9.30;;
55672;SDS011;41554;45.366;20.400;2023-05-16T02:11:40;25.45;;;9.27;;
55672;SDS011;41554;45.366;20.400;2023-05-16T02:14:07;20.77;;;8.55;;
55672;SDS011;41554;45.366;20.400;2023-05-16T02:16:33;15.55;;;8.23;;
55672;SDS011;41554;45.366;20.400;2023-05-16T02:19:00;13.40;;;7.70;;
55672;SDS011;41554;45.366;20.400;2023-05-16T02:21:26;18.73;;;8.25;;
55672;SDS011;41554;45.366;20.400;2023-05-16T02:23:52;11.10;;;7.72;;
55672;SDS011;41554;45.366;20.400;2023-05-16T02:26:18;19.70;;;8.18;;
55672;SDS011;41554;45.366;20.400;2023-05-16T02:28:44;12.45;;;8.35;;
55672;SDS011;41554;45.366;20.400;2023-05-16T02:31:13;17.92;;;8.48;;
55672;SDS011;41554;45.366;20.400;2023-05-16T02:33:50;18.10;;;8.75;;
55672;SDS011;41554;45.366;20.400;2023-05-16T02:36:16;14.00;;;8.38;;
55672;SDS011;41554;45.366;20.400;2023-05-16T02:38:42;15.30;;;9.65;;
55672;SDS011;41554;45.366;20.400;2023-05-16T02:41:08;19.27;;;11.48;;
55672;SDS011;41554;45.366;20.400;2023-05-16T02:43:34;18.85;;;10.52;;
55672;SDS011;41554;45.366;20.400;2023-05-16T02:46:03;19.38;;;10.15;;
55672;SDS011;41554;45.366;20.400;2023-05-16T02:48:29;8.93;;;7.40;;
55672;SDS011;41554;45.366;20.400;2023-05-16T02:50:55;17.92;;;9.25;;
55672;SDS011;41554;45.366;20.400;2023-05-16T02:53:21;11.38;;;8.63;;
55672;SDS011;41554;45.366;20.400;2023-05-16T02:55:47;26.77;;;9.65;;
55672;SDS011;41554;45.366;20.400;2023-05-16T02:58:13;19.23;;;10.18;;
55672;SDS011;41554;45.366;20.400;2023-05-16T03:00:39;12.63;;;7.45;;
55672;SDS011;41554;45.366;20.400;2023-05-16T03:03:05;14.68;;;9.02;;
55672;SDS011;41554;45.366;20.400;2023-05-16T03:05:31;11.70;;;7.20;;
55672;SDS011;41554;45.366;20.400;2023-05-16T03:07:57;11.63;;;8.90;;
55672;SDS011;41554;45.366;20.400;2023-05-16T03:10:23;15.45;;;8.40;;
55672;SDS011;41554;45.366;20.400;2023-05-16T03:12:49;14.90;;;8.23;;
55672;SDS011;41554;45.366;20.400;2023-05-16T03:15:15;12.23;;;8.55;;
55672;SDS011;41554;45.366;20.400;2023-05-16T03:17:41;33.22;;;10.80;;
55672;SDS011;41554;45.366;20.400;2023-05-16T03:20:08;16.95;;;7.95;;
55672;SDS011;41554;45.366;20.400;2023-05-16T03:22:35;13.82;;;8.35;;
55672;SDS011;41554;45.366;20.400;2023-05-16T03:25:01;21.73;;;10.57;;
55672;SDS011;41554;45.366;20.400;2023-05-16T03:27:28;21.73;;;9.40;;
55672;SDS011;41554;45.366;20.400;2023-05-16T03:29:54;11.73;;;9.65;;
55672;SDS011;41554;45.366;20.400;2023-05-16T03:32:20;14.98;;;8.32;;
55672;SDS011;41554;45.366;20.400;2023-05-16T03:34:46;13.18;;;9.70;;
55672;SDS011;41554;45.366;20.400;2023-05-16T03:37:12;16.17;;;9.90;;
55672;SDS011;41554;45.366;20.400;2023-05-16T03:39:40;16.77;;;9.95;;
55672;SDS011;41554;45.366;20.400;2023-05-16T03:42:06;24.65;;;10.05;;
55672;SDS011;41554;45.366;20.400;2023-05-16T03:44:32;16.88;;;9.48;;
55672;SDS011;41554;45.366;20.400;2023-05-16T03:46:58;14.10;;;8.77;;
55672;SDS011;41554;45.366;20.400;2023-05-16T03:49:25;12.93;;;8.98;;
55672;SDS011;41554;45.366;20.400;2023-05-16T03:54:20;12.50;;;7.10;;
55672;SDS011;41554;45.366;20.400;2023-05-16T03:56:47;15.85;;;9.48;;
55672;SDS011;41554;45.366;20.400;2023-05-16T03:59:13;16.92;;;7.30;;
55672;SDS011;41554;45.366;20.400;2023-05-16T04:01:39;10.95;;;7.65;;
55672;SDS011;41554;45.366;20.400;2023-05-16T04:04:05;15.82;;;8.00;;
55672;SDS011;41554;45.366;20.400;2023-05-16T04:06:31;13.65;;;8.25;;
55672;SDS011;41554;45.366;20.400;2023-05-16T04:08:58;13.80;;;8.93;;
55672;SDS011;41554;45.366;20.400;2023-05-16T04:11:24;13.75;;;7.93;;
55672;SDS011;41554;45.366;20.400;2023-05-16T04:13:50;14.23;;;7.50;;
55672;SDS011;41554;45.366;20.400;2023-05-16T04:16:18;15.45;;;8.10;;
55672;SDS011;41554;45.366;20.400;2023-05-16T04:18:44;11.95;;;9.43;;
55672;SDS011;41554;45.366;20.400;2023-05-16T04:21:10;15.30;;;7.97;;
55672;SDS011;41554;45.366;20.400;2023-05-16T04:23:39;13.20;;;8.85;;
55672;SDS011;41554;45.366;20.400;2023-05-16T04:26:05;10.57;;;7.88;;
55672;SDS011;41554;45.366;20.400;2023-05-16T04:28:31;13.43;;;8.45;;
55672;SDS011;41554;45.366;20.400;2023-05-16T04:30:58;10.85;;;7.80;;
55672;SDS011;41554;45.366;20.400;2023-05-16T04:33:24;20.08;;;8.38;;
55672;SDS011;41554;45.366;20.400;2023-05-16T04:35:50;17.80;;;8.98;;
55672;SDS011;41554;45.366;20.400;2023-05-16T04:38:17;13.00;;;7.43;;
55672;SDS011;41554;45.366;20.400;2023-05-16T04:40:43;12.73;;;8.63;;
55672;SDS011;41554;45.366;20.400;2023-05-16T04:43:09;13.07;;;8.32;;
55672;SDS011;41554;45.366;20.400;2023-05-16T04:45:35;23.55;;;8.30;;
55672;SDS011;41554;45.366;20.400;2023-05-16T04:48:01;13.63;;;9.45;;
55672;SDS011;41554;45.366;20.400;2023-05-16T04:50:28;14.75;;;7.47;;
55672;SDS011;41554;45.366;20.400;2023-05-16T04:52:54;20.55;;;10.45;;
55672;SDS011;41554;45.366;20.400;2023-05-16T04:55:20;16.85;;;8.75;;
55672;SDS011;41554;45.366;20.400;2023-05-16T04:57:46;14.25;;;7.55;;
55672;SDS011;41554;45.366;20.400;2023-05-16T05:00:12;18.48;;;8.85;;
55672;SDS011;41554;45.366;20.400;2023-05-16T05:02:38;24.02;;;9.85;;
55672;SDS011;41554;45.366;20.400;2023-05-16T05:05:04;17.98;;;8.40;;
55672;SDS011;41554;45.366;20.400;2023-05-16T05:07:31;11.90;;;7.60;;
55672;SDS011;41554;45.366;20.400;2023-05-16T05:09:57;11.00;;;8.13;;
55672;SDS011;41554;45.366;20.400;2023-05-16T05:12:23;10.95;;;7.10;;
55672;SDS011;41554;45.366;20.400;2023-05-16T05:14:51;10.82;;;8.68;;
55672;SDS011;41554;45.366;20.400;2023-05-16T05:17:18;12.43;;;8.25;;
55672;SDS011;41554;45.366;20.400;2023-05-16T05:19:45;17.10;;;8.15;;
55672;SDS011;41554;45.366;20.400;2023-05-16T05:22:11;13.68;;;8.38;;
55672;SDS011;41554;45.366;20.400;2023-05-16T05:24:37;11.88;;;7.72;;
55672;SDS011;41554;45.366;20.400;2023-05-16T05:27:03;23.15;;;7.72;;
55672;SDS011;41554;45.366;20.400;2023-05-16T05:29:29;9.85;;;7.00;;
55672;SDS011;41554;45.366;20.400;2023-05-16T05:31:55;16.95;;;8.52;;
55672;SDS011;41554;45.366;20.400;2023-05-16T05:34:21;10.23;;;7.90;;
55672;SDS011;41554;45.366;20.400;2023-05-16T05:36:47;7.78;;;6.95;;
55672;SDS011;41554;45.366;20.400;2023-05-16T05:39:13;11.02;;;7.32;;
55672;SDS011;41554;45.366;20.400;2023-05-16T05:41:39;12.48;;;7.72;;
55672;SDS011;41554;45.366;20.400;2023-05-16T05:44:05;14.32;;;7.53;;
55672;SDS011;41554;45.366;20.400;2023-05-16T05:46:31;13.48;;;8.00;;
55672;SDS011;41554;45.366;20.400;2023-05-16T05:48:58;11.88;;;6.93;;
55672;SDS011;41554;45.366;20.400;2023-05-16T05:51:25;17.58;;;8.02;;
55672;SDS011;41554;45.366;20.400;2023-05-16T05:53:51;11.02;;;7.72;;
55672;SDS011;41554;45.366;20.400;2023-05-16T05:56:17;10.93;;;7.47;;
55672;SDS011;41554;45.366;20.400;2023-05-16T05:58:45;13.98;;;6.93;;
55672;SDS011;41554;45.366;20.400;2023-05-16T06:01:11;13.80;;;7.53;;
55672;SDS011;41554;45.366;20.400;2023-05-16T06:03:37;9.57;;;7.30;;
55672;SDS011;41554;45.366;20.400;2023-05-16T06:06:03;17.75;;;7.40;;
55672;SDS011;41554;45.366;20.400;2023-05-16T06:08:29;10.73;;;7.47;;
55672;SDS011;41554;45.366;20.400;2023-05-16T06:10:55;8.77;;;7.05;;
55672;SDS011;41554;45.366;20.400;2023-05-16T06:13:21;11.48;;;6.57;;
55672;SDS011;41554;45.366;20.400;2023-05-16T06:15:51;13.73;;;7.25;;
55672;SDS011;41554;45.366;20.400;2023-05-16T06:18:17;9.23;;;7.07;;
55672;SDS011;41554;45.366;20.400;2023-05-16T06:20:43;10.95;;;6.57;;
55672;SDS011;41554;45.366;20.400;2023-05-16T06:23:09;13.75;;;8.13;;
55672;SDS011;41554;45.366;20.400;2023-05-16T06:25:35;14.48;;;8.20;;
55672;SDS011;41554;45.366;20.400;2023-05-16T06:28:01;24.63;;;8.68;;
55672;SDS011;41554;45.366;20.400;2023-05-16T06:30:27;9.80;;;7.03;;
55672;SDS011;41554;45.366;20.400;2023-05-16T06:32:53;8.88;;;6.30;;
55672;SDS011;41554;45.366;20.400;2023-05-16T06:35:19;9.45;;;6.53;;
55672;SDS011;41554;45.366;20.400;2023-05-16T06:37:45;14.07;;;8.55;;
55672;SDS011;41554;45.366;20.400;2023-05-16T06:40:11;7.78;;;5.30;;
55672;SDS011;41554;45.366;20.400;2023-05-16T06:42:38;10.25;;;7.20;;
55672;SDS011;41554;45.366;20.400;2023-05-16T06:45:04;9.38;;;7.15;;
55672;SDS011;41554;45.366;20.400;2023-05-16T06:47:30;13.23;;;6.95;;
55672;SDS011;41554;45.366;20.400;2023-05-16T06:49:56;7.03;;;5.45;;
55672;SDS011;41554;45.366;20.400;2023-05-16T06:52:23;12.32;;;6.22;;
55672;SDS011;41554;45.366;20.400;2023-05-16T06:54:49;9.05;;;6.68;;
55672;SDS011;41554;45.366;20.400;2023-05-16T06:57:15;13.63;;;6.72;;
55672;SDS011;41554;45.366;20.400;2023-05-16T06:59:41;10.90;;;6.25;;
55672;SDS011;41554;45.366;20.400;2023-05-16T07:02:07;10.32;;;8.00;;
55672;SDS011;41554;45.366;20.400;2023-05-16T07:04:33;9.23;;;6.78;;
55672;SDS011;41554;45.366;20.400;2023-05-16T07:07:02;10.63;;;8.45;;
55672;SDS011;41554;45.366;20.400;2023-05-16T07:09:28;8.02;;;6.18;;
55672;SDS011;41554;45.366;20.400;2023-05-16T07:11:55;10.70;;;7.38;;
55672;SDS011;41554;45.366;20.400;2023-05-16T07:14:21;10.50;;;5.80;;
55672;SDS011;41554;45.366;20.400;2023-05-16T07:16:47;9.50;;;6.82;;
55672;SDS011;41554;45.366;20.400;2023-05-16T07:19:13;7.95;;;5.47;;
55672;SDS011;41554;45.366;20.400;2023-05-16T07:21:39;9.38;;;5.93;;
55672;SDS011;41554;45.366;20.400;2023-05-16T07:24:05;9.98;;;6.68;;
55672;SDS011;41554;45.366;20.400;2023-05-16T07:26:31;10.68;;;6.55;;
55672;SDS011;41554;45.366;20.400;2023-05-16T07:28:57;6.78;;;5.60;;
55672;SDS011;41554;45.366;20.400;2023-05-16T07:31:24;12.75;;;7.13;;
55672;SDS011;41554;45.366;20.400;2023-05-16T07:33:50;9.63;;;6.35;;
55672;SDS011;41554;45.366;20.400;2023-05-16T07:36:16;8.90;;;5.63;;
55672;SDS011;41554;45.366;20.400;2023-05-16T07:38:42;9.23;;;7.90;;
55672;SDS011;41554;45.366;20.400;2023-05-16T07:41:08;13.57;;;6.55;;
55672;SDS011;41554;45.366;20.400;2023-05-16T07:43:34;12.80;;;6.25;;
55672;SDS011;41554;45.366;20.400;2023-05-16T07:46:01;9.05;;;7.55;;
55672;SDS011;41554;45.366;20.400;2023-05-16T07:48:27;17.45;;;7.10;;
55672;SDS011;41554;45.366;20.400;2023-05-16T07:50:53;16.25;;;7.00;;
55672;SDS011;41554;45.366;20.400;2023-05-16T07:53:20;9.90;;;7.20;;
55672;SDS011;41554;45.366;20.400;2023-05-16T07:55:46;38.85;;;22.98;;
55672;SDS011;41554;45.366;20.400;2023-05-16T07:58:12;23.95;;;18.85;;
55672;SDS011;41554;45.366;20.400;2023-05-16T08:00:38;9.43;;;7.55;;
55672;SDS011;41554;45.366;20.400;2023-05-16T08:03:04;12.27;;;9.35;;
55672;SDS011;41554;45.366;20.400;2023-05-16T08:05:31;14.93;;;7.38;;
55672;SDS011;41554;45.366;20.400;2023-05-16T08:07:57;10.18;;;6.60;;
55672;SDS011;41554;45.366;20.400;2023-05-16T08:10:23;9.40;;;7.05;;
55672;SDS011;41554;45.366;20.400;2023-05-16T08:12:49;9.45;;;6.43;;
55672;SDS011;41554;45.366;20.400;2023-05-16T08:15:17;27.00;;;10.38;;
55672;SDS011;41554;45.366;20.400;2023-05-16T08:17:43;24.30;;;11.00;;
55672;SDS011;41554;45.366;20.400;2023-05-16T08:20:09;18.08;;;10.85;;
55672;SDS011;41554;45.366;20.400;2023-05-16T08:22:35;12.45;;;8.82;;
55672;SDS011;41554;45.366;20.400;2023-05-16T08:25:01;29.67;;;10.85;;
55672;SDS011;41554;45.366;20.400;2023-05-16T08:27:28;30.75;;;19.15;;
55672;SDS011;41554;45.366;20.400;2023-05-16T08:29:54;26.83;;;14.75;;
55672;SDS011;41554;45.366;20.400;2023-05-16T08:32:20;11.57;;;8.55;;
55672;SDS011;41554;45.366;20.400;2023-05-16T08:34:47;11.63;;;8.40;;
55672;SDS011;41554;45.366;20.400;2023-05-16T08:37:13;12.38;;;7.57;;
55672;SDS011;41554;45.366;20.400;2023-05-16T08:39:40;10.77;;;7.57;;
55672;SDS011;41554;45.366;20.400;2023-05-16T08:42:07;16.33;;;9.43;;
55672;SDS011;41554;45.366;20.400;2023-05-16T08:44:33;15.90;;;8.35;;
55672;SDS011;41554;45.366;20.400;2023-05-16T08:47:02;8.15;;;6.22;;
55672;SDS011;41554;45.366;20.400;2023-05-16T08:49:32;11.75;;;7.35;;
55672;SDS011;41554;45.366;20.400;2023-05-16T08:51:59;8.30;;;6.60;;
55672;SDS011;41554;45.366;20.400;2023-05-16T08:54:26;12.35;;;7.85;;
55672;SDS011;41554;45.366;20.400;2023-05-16T08:56:53;12.60;;;7.90;;
55672;SDS011;41554;45.366;20.400;2023-05-16T08:59:19;13.82;;;8.27;;
55672;SDS011;41554;45.366;20.400;2023-05-16T09:01:45;6.78;;;5.82;;
55672;SDS011;41554;45.366;20.400;2023-05-16T09:04:12;18.88;;;6.50;;
55672;SDS011;41554;45.366;20.400;2023-05-16T09:06:38;9.77;;;6.38;;
55672;SDS011;41554;45.366;20.400;2023-05-16T09:09:04;11.05;;;7.65;;
55672;SDS011;41554;45.366;20.400;2023-05-16T09:11:32;7.55;;;6.05;;
55672;SDS011;41554;45.366;20.400;2023-05-16T09:13:58;13.18;;;5.40;;
55672;SDS011;41554;45.366;20.400;2023-05-16T09:16:24;8.18;;;6.00;;
55672;SDS011;41554;45.366;20.400;2023-05-16T09:18:57;11.82;;;6.07;;
55672;SDS011;41554;45.366;20.400;2023-05-16T09:21:30;8.95;;;5.55;;
55672;SDS011;41554;45.366;20.400;2023-05-16T09:24:01;8.48;;;5.35;;
55672;SDS011;41554;45.366;20.400;2023-05-16T09:26:28;9.57;;;6.70;;
55672;SDS011;41554;45.366;20.400;2023-05-16T09:28:55;11.07;;;7.05;;
55672;SDS011;41554;45.366;20.400;2023-05-16T09:31:22;9.75;;;6.45;;
55672;SDS011;41554;45.366;20.400;2023-05-16T09:33:50;16.25;;;7.65;;
55672;SDS011;41554;45.366;20.400;2023-05-16T09:36:16;11.73;;;7.15;;
55672;SDS011;41554;45.366;20.400;2023-05-16T09:38:43;6.43;;;5.22;;
55672;SDS011;41554;45.366;20.400;2023-05-16T09:41:09;16.48;;;6.55;;
55672;SDS011;41554;45.366;20.400;2023-05-16T09:43:37;9.30;;;6.30;;
55672;SDS011;41554;45.366;20.400;2023-05-16T09:46:03;11.32;;;7.25;;
55672;SDS011;41554;45.366;20.400;2023-05-16T09:48:30;7.22;;;5.45;;
55672;SDS011;41554;45.366;20.400;2023-05-16T09:50:57;10.25;;;6.65;;
55672;SDS011;41554;45.366;20.400;2023-05-16T09:53:31;14.30;;;8.05;;
55672;SDS011;41554;45.366;20.400;2023-05-16T09:56:09;8.63;;;5.95;;
55672;SDS011;41554;45.366;20.400;2023-05-16T09:58:36;12.68;;;6.72;;
55672;SDS011;41554;45.366;20.400;2023-05-16T10:01:02;8.30;;;5.53;;
55672;SDS011;41554;45.366;20.400;2023-05-16T10:03:29;9.77;;;6.65;;
55672;SDS011;41554;45.366;20.400;2023-05-16T10:05:55;14.55;;;7.05;;
55672;SDS011;41554;45.366;20.400;2023-05-16T10:08:23;23.40;;;9.90;;
55672;SDS011;41554;45.366;20.400;2023-05-16T10:10:52;25.55;;;7.18;;
55672;SDS011;41554;45.366;20.400;2023-05-16T10:13:23;13.85;;;7.70;;
55672;SDS011;41554;45.366;20.400;2023-05-16T10:15:49;8.18;;;6.28;;
55672;SDS011;41554;45.366;20.400;2023-05-16T10:18:16;9.57;;;6.15;;
55672;SDS011;41554;45.366;20.400;2023-05-16T10:20:44;8.80;;;6.68;;
55672;SDS011;41554;45.366;20.400;2023-05-16T10:23:15;7.03;;;6.10;;
55672;SDS011;41554;45.366;20.400;2023-05-16T10:25:41;9.48;;;6.00;;
55672;SDS011;41554;45.366;20.400;2023-05-16T10:28:08;12.88;;;6.78;;
55672;SDS011;41554;45.366;20.400;2023-05-16T10:30:34;8.32;;;5.75;;
55672;SDS011;41554;45.366;20.400;2023-05-16T10:33:01;14.45;;;6.38;;
55672;SDS011;41554;45.366;20.400;2023-05-16T10:35:29;12.20;;;7.38;;
55672;SDS011;41554;45.366;20.400;2023-05-16T10:37:56;7.47;;;5.40;;
55672;SDS011;41554;45.366;20.400;2023-05-16T10:40:23;7.78;;;6.25;;
55672;SDS011;41554;45.366;20.400;2023-05-16T10:42:56;10.63;;;6.60;;
55672;SDS011;41554;45.366;20.400;2023-05-16T10:45:22;12.30;;;6.93;;
55672;SDS011;41554;45.366;20.400;2023-05-16T10:47:55;12.77;;;7.00;;
55672;SDS011;41554;45.366;20.400;2023-05-16T10:56:08;12.85;;;7.25;;
55672;SDS011;41554;45.366;20.400;2023-05-16T11:06:27;7.85;;;7.10;;
55672;SDS011;41554;45.366;20.400;2023-05-16T11:08:57;11.60;;;7.20;;
55672;SDS011;41554;45.366;20.400;2023-05-16T11:14:08;14.60;;;8.25;;
55672;SDS011;41554;45.366;20.400;2023-05-16T11:16:34;8.95;;;6.53;;
55672;SDS011;41554;45.366;20.400;2023-05-16T11:19:04;13.15;;;7.35;;
55672;SDS011;41554;45.366;20.400;2023-05-16T11:24:28;9.65;;;6.40;;
55672;SDS011;41554;45.366;20.400;2023-05-16T11:26:54;8.90;;;7.22;;
55672;SDS011;41554;45.366;20.400;2023-05-16T11:29:21;12.10;;;7.57;;
55672;SDS011;41554;45.366;20.400;2023-05-16T11:31:47;7.40;;;5.57;;
55672;SDS011;41554;45.366;20.400;2023-05-16T11:34:13;11.77;;;6.28;;
55672;SDS011;41554;45.366;20.400;2023-05-16T11:36:39;13.00;;;6.18;;
55672;SDS011;41554;45.366;20.400;2023-05-16T11:39:06;12.52;;;6.80;;
55672;SDS011;41554;45.366;20.400;2023-05-16T11:41:33;15.95;;;8.88;;
55672;SDS011;41554;45.366;20.400;2023-05-16T11:43:59;11.27;;;7.63;;
55672;SDS011;41554;45.366;20.400;2023-05-16T11:46:25;9.82;;;6.88;;
55672;SDS011;41554;45.366;20.400;2023-05-16T11:48:51;11.02;;;7.18;;
55672;SDS011;41554;45.366;20.400;2023-05-16T11:51:18;9.13;;;7.43;;
55672;SDS011;41554;45.366;20.400;2023-05-16T11:53:45;12.10;;;6.68;;
55672;SDS011;41554;45.366;20.400;2023-05-16T11:56:11;11.95;;;8.18;;
55672;SDS011;41554;45.366;20.400;2023-05-16T11:58:37;10.85;;;8.57;;
55672;SDS011;41554;45.366;20.400;2023-05-16T12:01:03;13.95;;;8.88;;
55672;SDS011;41554;45.366;20.400;2023-05-16T12:03:30;12.60;;;7.32;;
55672;SDS011;41554;45.366;20.400;2023-05-16T12:05:59;12.02;;;8.02;;
55672;SDS011;41554;45.366;20.400;2023-05-16T12:08:25;12.15;;;7.50;;
55672;SDS011;41554;45.366;20.400;2023-05-16T12:10:51;16.05;;;7.70;;
55672;SDS011;41554;45.366;20.400;2023-05-16T12:13:18;9.02;;;6.78;;
55672;SDS011;41554;45.366;20.400;2023-05-16T12:15:45;9.07;;;7.03;;
55672;SDS011;41554;45.366;20.400;2023-05-16T12:18:11;10.85;;;7.25;;
55672;SDS011;41554;45.366;20.400;2023-05-16T12:20:37;10.98;;;6.82;;
55672;SDS011;41554;45.366;20.400;2023-05-16T12:23:04;21.58;;;7.75;;
55672;SDS011;41554;45.366;20.400;2023-05-16T12:25:34;5.80;;;5.20;;
55672;SDS011;41554;45.366;20.400;2023-05-16T12:28:02;7.43;;;5.85;;
55672;SDS011;41554;45.366;20.400;2023-05-16T12:30:29;13.18;;;6.40;;
55672;SDS011;41554;45.366;20.400;2023-05-16T12:32:59;8.60;;;5.85;;
55672;SDS011;41554;45.366;20.400;2023-05-16T12:35:30;24.80;;;6.88;;
55672;SDS011;41554;45.366;20.400;2023-05-16T12:37:57;7.28;;;5.28;;
55672;SDS011;41554;45.366;20.400;2023-05-16T12:40:26;9.18;;;6.00;;
55672;SDS011;41554;45.366;20.400;2023-05-16T12:42:52;7.55;;;6.68;;
55672;SDS011;41554;45.366;20.400;2023-05-16T12:45:18;9.43;;;7.65;;
55672;SDS011;41554;45.366;20.400;2023-05-16T12:47:47;11.77;;;6.13;;
55672;SDS011;41554;45.366;20.400;2023-05-16T12:50:13;13.15;;;6.90;;
55672;SDS011;41554;45.366;20.400;2023-05-16T12:52:53;11.70;;;8.35;;
55672;SDS011;41554;45.366;20.400;2023-05-16T12:55:20;11.27;;;7.32;;
55672;SDS011;41554;45.366;20.400;2023-05-16T12:57:47;14.52;;;7.75;;
55672;SDS011;41554;45.366;20.400;2023-05-16T13:00:14;9.30;;;7.20;;
55672;SDS011;41554;45.366;20.400;2023-05-16T13:02:41;23.67;;;7.82;;
55672;SDS011;41554;45.366;20.400;2023-05-16T13:05:07;12.07;;;7.68;;
55672;SDS011;41554;45.366;20.400;2023-05-16T13:07:34;10.75;;;7.00;;
55672;SDS011;41554;45.366;20.400;2023-05-16T13:10:00;14.10;;;6.20;;
55672;SDS011;41554;45.366;20.400;2023-05-16T13:12:27;9.50;;;7.75;;
55672;SDS011;41554;45.366;20.400;2023-05-16T13:14:53;10.73;;;5.35;;
55672;SDS011;41554;45.366;20.400;2023-05-16T13:17:19;11.57;;;5.38;;
55672;SDS011;41554;45.366;20.400;2023-05-16T13:19:45;11.63;;;6.03;;
55672;SDS011;41554;45.366;20.400;2023-05-16T13:22:11;13.43;;;6.80;;
55672;SDS011;41554;45.366;20.400;2023-05-16T13:24:37;19.63;;;6.25;;
55672;SDS011;41554;45.366;20.400;2023-05-16T13:27:03;10.00;;;6.50;;
55672;SDS011;41554;45.366;20.400;2023-05-16T13:29:30;11.00;;;5.95;;
55672;SDS011;41554;45.366;20.400;2023-05-16T13:31:56;8.30;;;5.43;;
55672;SDS011;41554;45.366;20.400;2023-05-16T13:34:22;12.57;;;4.90;;
55672;SDS011;41554;45.366;20.400;2023-05-16T13:36:48;9.45;;;6.38;;
55672;SDS011;41554;45.366;20.400;2023-05-16T13:39:14;18.05;;;6.10;;
55672;SDS011;41554;45.366;20.400;2023-05-16T13:41:40;23.67;;;5.15;;
55672;SDS011;41554;45.366;20.400;2023-05-16T13:44:07;6.38;;;5.45;;
55672;SDS011;41554;45.366;20.400;2023-05-16T13:46:33;17.73;;;5.85;;
55672;SDS011;41554;45.366;20.400;2023-05-16T13:49:00;7.38;;;5.43;;
55672;SDS011;41554;45.366;20.400;2023-05-16T13:51:26;11.88;;;5.68;;
55672;SDS011;41554;45.366;20.400;2023-05-16T13:53:52;15.05;;;6.00;;
55672;SDS011;41554;45.366;20.400;2023-05-16T13:56:18;8.50;;;6.40;;
55672;SDS011;41554;45.366;20.400;2023-05-16T13:58:44;8.75;;;6.85;;
55672;SDS011;41554;45.366;20.400;2023-05-16T14:01:10;8.65;;;6.75;;
55672;SDS011;41554;45.366;20.400;2023-05-16T14:03:37;11.48;;;7.03;;
55672;SDS011;41554;45.366;20.400;2023-05-16T14:06:03;8.88;;;6.00;;
55672;SDS011;41554;45.366;20.400;2023-05-16T14:08:29;21.52;;;7.32;;
55672;SDS011;41554;45.366;20.400;2023-05-16T14:10:55;9.93;;;6.57;;
55672;SDS011;41554;45.366;20.400;2023-05-16T14:13:21;15.25;;;6.70;;
55672;SDS011;41554;45.366;20.400;2023-05-16T14:15:47;13.68;;;7.35;;
55672;SDS011;41554;45.366;20.400;2023-05-16T14:18:13;12.93;;;6.68;;
55672;SDS011;41554;45.366;20.400;2023-05-16T14:20:39;14.50;;;6.47;;
55672;SDS011;41554;45.366;20.400;2023-05-16T14:23:08;6.70;;;5.40;;
55672;SDS011;41554;45.366;20.400;2023-05-16T14:25:38;12.43;;;6.13;;
55672;SDS011;41554;45.366;20.400;2023-05-16T14:28:07;13.25;;;5.97;;
55672;SDS011;41554;45.366;20.400;2023-05-16T14:30:33;13.00;;;6.18;;
55672;SDS011;41554;45.366;20.400;2023-05-16T14:33:01;14.10;;;6.72;;
55672;SDS011;41554;45.366;20.400;2023-05-16T14:35:27;16.58;;;5.22;;
55672;SDS011;41554;45.366;20.400;2023-05-16T14:37:53;10.90;;;5.25;;
55672;SDS011;41554;45.366;20.400;2023-05-16T14:40:19;7.25;;;5.00;;
55672;SDS011;41554;45.366;20.400;2023-05-16T14:42:45;13.68;;;5.57;;
55672;SDS011;41554;45.366;20.400;2023-05-16T14:45:11;7.78;;;5.97;;
55672;SDS011;41554;45.366;20.400;2023-05-16T14:47:37;15.48;;;5.55;;
55672;SDS011;41554;45.366;20.400;2023-05-16T14:50:04;8.02;;;4.82;;
55672;SDS011;41554;45.366;20.400;2023-05-16T14:52:31;6.68;;;4.32;;
55672;SDS011;41554;45.366;20.400;2023-05-16T14:54:57;20.38;;;5.82;;